createdAt,value
2019-02-07T00:00:41.802Z,11.40
2019-02-07T00:03:15.563Z,10.95
2019-02-07T00:05:49.225Z,12.75
2019-02-07T00:08:22.845Z,11.55
2019-02-07T00:10:56.632Z,10.68
2019-02-07T00:13:30.258Z,9.13
2019-02-07T00:16:03.888Z,10.95
2019-02-07T00:18:37.563Z,10.90
2019-02-07T00:21:11.993Z,10.48
2019-02-07T00:23:45.559Z,12.95
2019-02-07T00:26:19.262Z,10.82
2019-02-07T00:28:52.796Z,9.82
2019-02-07T00:31:26.351Z,11.80
2019-02-07T00:33:59.903Z,12.68
2019-02-07T00:36:33.483Z,11.95
2019-02-07T00:39:07.075Z,12.70
2019-02-07T00:41:40.640Z,10.13
2019-02-07T00:44:14.208Z,11.60
2019-02-07T00:46:47.791Z,11.52
2019-02-07T00:49:21.349Z,11.30
2019-02-07T00:51:55.793Z,9.63
2019-02-07T00:54:29.319Z,14.57
2019-02-07T00:57:02.989Z,10.90
2019-02-07T00:59:37.432Z,11.07
2019-02-07T01:02:11.037Z,11.35
2019-02-07T01:04:44.579Z,10.30
2019-02-07T01:07:18.266Z,9.75
2019-02-07T01:09:51.828Z,10.02
2019-02-07T01:12:25.459Z,10.35
2019-02-07T01:15:02.200Z,11.48
2019-02-07T01:17:32.721Z,9.90
2019-02-07T01:20:06.275Z,11.32
2019-02-07T01:22:41.033Z,8.93
2019-02-07T01:25:16.813Z,10.98
2019-02-07T01:27:51.141Z,11.20
2019-02-07T01:30:25.713Z,9.70
2019-02-07T01:32:59.537Z,10.70
2019-02-07T01:35:33.870Z,11.27
2019-02-07T01:38:07.432Z,9.65
2019-02-07T01:40:41.185Z,11.70
2019-02-07T01:43:15.518Z,10.32
2019-02-07T01:45:50.209Z,9.10
2019-02-07T01:48:23.839Z,8.95
2019-02-07T01:50:57.486Z,8.40
2019-02-07T01:53:32.044Z,10.85
2019-02-07T01:56:05.607Z,9.15
2019-02-07T01:58:39.386Z,10.52
2019-02-07T02:01:13.127Z,10.15
2019-02-07T02:03:46.756Z,9.85
2019-02-07T02:06:20.366Z,8.75
2019-02-07T02:08:53.958Z,8.32
2019-02-07T02:11:27.482Z,8.65
2019-02-07T02:14:01.213Z,8.93
2019-02-07T02:16:34.775Z,8.38
2019-02-07T02:19:08.378Z,11.82
2019-02-07T02:21:42.694Z,8.77
2019-02-07T02:24:16.396Z,8.98
2019-02-07T02:26:50.665Z,8.52
2019-02-07T02:29:24.210Z,10.30
2019-02-07T02:31:57.714Z,9.75
2019-02-07T02:34:31.457Z,10.13
2019-02-07T02:37:05.046Z,8.48
2019-02-07T02:39:39.544Z,10.85
2019-02-07T02:42:13.273Z,9.02
2019-02-07T02:44:46.929Z,8.88
2019-02-07T02:47:20.532Z,7.30
2019-02-07T02:49:54.250Z,9.38
2019-02-07T02:52:28.590Z,8.55
2019-02-07T02:55:02.236Z,8.93
2019-02-07T02:57:35.859Z,10.38
2019-02-07T03:00:12.439Z,9.82
2019-02-07T03:02:48.859Z,8.40
2019-02-07T03:05:26.531Z,10.93
2019-02-07T03:08:05.176Z,10.70
2019-02-07T03:10:44.307Z,10.57
2019-02-07T03:13:23.566Z,9.52
2019-02-07T03:16:07.176Z,9.95
2019-02-07T03:18:40.840Z,9.05
2019-02-07T03:21:19.670Z,10.35
2019-02-07T03:24:11.238Z,10.90
2019-02-07T03:40:12.392Z,13.70
2019-02-07T03:42:48.531Z,12.68
2019-02-07T03:45:37.119Z,11.25
2019-02-07T03:48:14.761Z,11.25
2019-02-07T03:51:04.287Z,12.45
2019-02-07T04:07:14.274Z,14.65
2019-02-07T04:10:02.735Z,12.35
2019-02-07T04:12:36.290Z,11.63
2019-02-07T04:15:15.677Z,11.40
2019-02-07T04:17:54.262Z,9.63
2019-02-07T04:33:52.323Z,12.32
2019-02-07T04:36:31.762Z,8.48
2019-02-07T04:39:21.712Z,11.00
2019-02-07T04:42:00.870Z,8.88
2019-02-07T04:44:40.227Z,11.05
2019-02-07T04:47:18.818Z,10.70
2019-02-07T04:49:52.527Z,9.90
2019-02-07T04:52:32.039Z,11.40
2019-02-07T04:55:25.469Z,10.57
2019-02-07T04:58:04.600Z,9.32
2019-02-07T05:00:40.442Z,11.45
2019-02-07T05:03:20.716Z,11.85
2019-02-07T05:06:11.002Z,9.43
2019-02-07T05:09:03.584Z,12.50
2019-02-07T05:14:37.227Z,13.43
2019-02-07T05:17:11.004Z,11.85
2019-02-07T05:19:48.997Z,9.82
2019-02-07T05:22:31.568Z,9.55
2019-02-07T05:38:51.500Z,13.38
2019-02-07T05:41:42.984Z,9.60
2019-02-07T05:44:22.221Z,8.70
2019-02-07T05:47:08.768Z,9.35
2019-02-07T05:49:42.995Z,8.05
2019-02-07T05:52:20.740Z,12.52
2019-02-07T05:54:54.351Z,10.05
2019-02-07T05:57:28.806Z,9.25
2019-02-07T06:00:15.325Z,10.23
2019-02-07T06:02:59.879Z,9.70
2019-02-07T06:05:52.584Z,12.00
2019-02-07T06:08:32.201Z,9.32
2019-02-07T06:11:05.715Z,8.27
2019-02-07T06:13:41.135Z,11.73
2019-02-07T06:16:15.728Z,11.00
2019-02-07T06:18:50.096Z,9.35
2019-02-07T06:35:06.888Z,12.30
2019-02-07T06:37:51.456Z,9.30
2019-02-07T06:53:50.477Z,15.25
2019-02-07T06:56:29.846Z,10.75
2019-02-07T06:59:06.655Z,10.88
2019-02-07T07:01:51.112Z,9.95
2019-02-07T07:04:43.624Z,10.80
2019-02-07T07:10:15.695Z,14.77
2019-02-07T07:12:50.973Z,10.95
2019-02-07T07:15:33.233Z,8.48
2019-02-07T07:18:06.912Z,9.95
2019-02-07T07:20:41.383Z,10.02
2019-02-07T07:23:30.791Z,9.15
2019-02-07T07:28:57.958Z,11.70
2019-02-07T07:31:37.359Z,10.02
2019-02-07T07:34:11.904Z,12.00
2019-02-07T07:36:46.624Z,8.63
2019-02-07T07:39:31.953Z,11.25
2019-02-07T07:42:11.812Z,7.25
2019-02-07T07:44:45.417Z,8.25
2019-02-07T07:47:35.525Z,9.18
2019-02-07T07:50:18.796Z,9.32
2019-02-07T07:53:10.160Z,7.22
2019-02-07T07:56:01.281Z,8.82
2019-02-07T07:58:42.396Z,9.07
2019-02-07T08:01:27.937Z,10.05
2019-02-07T08:04:02.442Z,8.13
2019-02-07T08:06:37.794Z,8.25
2019-02-07T08:09:17.224Z,9.10
2019-02-07T08:11:52.096Z,7.12
2019-02-07T08:14:27.503Z,6.90
2019-02-07T08:17:07.206Z,8.65
2019-02-07T08:19:40.750Z,7.20
2019-02-07T08:22:17.935Z,6.20
2019-02-07T08:38:39.132Z,7.03
2019-02-07T08:41:12.880Z,5.65
2019-02-07T08:44:07.184Z,5.43
2019-02-07T09:00:16.284Z,9.77
2019-02-07T09:02:52.075Z,7.15
2019-02-07T09:05:25.001Z,7.18
2019-02-07T09:08:13.530Z,6.47
2019-02-07T09:24:24.225Z,11.00
2019-02-07T09:27:13.681Z,8.40
2019-02-07T09:29:53.140Z,8.30
2019-02-07T09:32:28.644Z,7.82
2019-02-07T09:35:09.785Z,9.82
2019-02-07T09:37:49.907Z,9.15
2019-02-07T09:40:26.155Z,8.90
2019-02-07T09:43:02.784Z,8.25
2019-02-07T09:45:43.925Z,9.30
2019-02-07T09:48:21.881Z,8.65
2019-02-07T09:50:55.490Z,9.23
2019-02-07T09:53:41.558Z,9.27
2019-02-07T09:56:20.761Z,9.45
2019-02-07T09:59:10.154Z,8.45
2019-02-07T10:01:47.479Z,7.90
2019-02-07T10:04:27.375Z,11.23
2019-02-07T10:07:06.871Z,9.07
2019-02-07T10:09:42.287Z,8.57
2019-02-07T10:12:17.876Z,9.57
2019-02-07T10:15:11.208Z,8.40
2019-02-07T10:18:00.443Z,7.70
2019-02-07T10:23:23.894Z,10.33
2019-02-07T10:25:57.544Z,10.13
2019-02-07T10:28:46.950Z,8.20
2019-02-07T10:31:38.131Z,7.78
2019-02-07T10:34:20.585Z,8.02
2019-02-07T10:37:09.290Z,6.90
2019-02-07T10:39:54.838Z,8.50
2019-02-07T10:55:53.199Z,12.60
2019-02-07T10:58:36.201Z,8.93
2019-02-07T11:01:27.113Z,8.63
2019-02-07T11:04:12.656Z,8.63
2019-02-07T11:06:47.249Z,8.65
2019-02-07T11:09:24.454Z,9.18
2019-02-07T11:11:59.005Z,9.50
2019-02-07T11:14:53.449Z,8.48
2019-02-07T11:17:32.812Z,9.30
2019-02-07T11:20:27.149Z,9.48
2019-02-07T11:23:03.334Z,8.00
2019-02-07T11:25:37.821Z,10.20
2019-02-07T11:28:11.530Z,10.13
2019-02-07T11:43:55.916Z,10.70
2019-02-07T11:46:37.609Z,10.15
2019-02-07T11:49:24.771Z,8.90
2019-02-07T11:52:05.169Z,8.85
2019-02-07T11:54:41.355Z,8.82
2019-02-07T11:57:15.663Z,8.15
2019-02-07T11:59:54.842Z,9.00
2019-02-07T12:02:48.771Z,7.22
2019-02-07T12:05:39.196Z,8.95
2019-02-07T12:08:18.559Z,10.35
2019-02-07T12:10:58.436Z,8.45
2019-02-07T12:13:35.827Z,8.32
2019-02-07T12:16:13.970Z,8.30
2019-02-07T12:18:50.483Z,9.02
2019-02-07T12:21:31.182Z,8.40
2019-02-07T12:24:05.056Z,8.57
2019-02-07T12:26:42.329Z,10.00
2019-02-07T12:29:19.343Z,9.02
2019-02-07T12:32:09.904Z,11.10
2019-02-07T12:34:58.572Z,9.70
2019-02-07T12:37:37.884Z,10.02
2019-02-07T12:40:28.289Z,9.90
2019-02-07T12:43:09.665Z,8.82
2019-02-07T12:45:45.233Z,10.07
2019-02-07T12:48:23.812Z,9.32
2019-02-07T12:50:59.418Z,10.00
2019-02-07T12:53:39.744Z,9.90
2019-02-07T12:56:32.244Z,10.75
2019-02-07T12:59:12.412Z,11.05
2019-02-07T13:01:51.965Z,10.77
2019-02-07T13:18:01.683Z,12.35
2019-02-07T13:20:51.130Z,11.70
2019-02-07T13:23:25.732Z,9.05
2019-02-07T13:25:59.285Z,12.40
2019-02-07T13:28:32.990Z,8.82
2019-02-07T13:31:22.282Z,11.07
2019-02-07T13:34:02.766Z,9.45
2019-02-07T13:36:43.776Z,11.27
2019-02-07T13:39:37.499Z,9.63
2019-02-07T13:42:27.510Z,11.63
2019-02-07T13:45:13.835Z,11.20
2019-02-07T13:47:47.637Z,10.45
2019-02-07T13:50:25.002Z,10.43
2019-02-07T13:53:00.678Z,13.18
2019-02-07T14:09:19.805Z,13.15
2019-02-07T14:12:10.288Z,11.23
2019-02-07T14:14:49.685Z,11.07
2019-02-07T14:17:23.269Z,10.48
2019-02-07T14:20:11.868Z,10.50
2019-02-07T14:22:46.841Z,10.25
2019-02-07T14:25:24.073Z,11.23
2019-02-07T14:28:12.655Z,11.68
2019-02-07T14:30:49.250Z,9.25
2019-02-07T14:33:37.814Z,4.90
2019-02-07T14:49:35.500Z,3.80
2019-02-07T14:52:09.153Z,3.10
2019-02-07T14:54:43.491Z,2.25
2019-02-07T14:57:17.291Z,2.30
2019-02-07T14:59:51.740Z,1.87
2019-02-07T15:02:26.111Z,3.00
2019-02-07T15:05:00.677Z,2.45
2019-02-07T15:07:35.404Z,2.55
2019-02-07T15:10:09.921Z,2.40
2019-02-07T15:12:43.579Z,2.50
2019-02-07T15:15:17.181Z,1.83
2019-02-07T15:17:50.795Z,1.90
2019-02-07T15:20:26.432Z,1.70
2019-02-07T15:22:58.506Z,1.30
2019-02-07T15:25:32.240Z,2.35
2019-02-07T15:28:05.985Z,1.62
2019-02-07T15:30:40.494Z,1.48
2019-02-07T15:33:14.292Z,1.80
2019-02-07T15:36:00.601Z,1.42
2019-02-07T15:38:34.194Z,2.40
2019-02-07T15:41:08.097Z,1.60
2019-02-07T15:43:41.930Z,1.85
2019-02-07T15:46:15.782Z,1.92
2019-02-07T15:48:49.477Z,2.00
2019-02-07T15:51:23.324Z,2.12
2019-02-07T15:53:57.079Z,5.35
2019-02-07T15:56:30.914Z,9.95
2019-02-07T15:59:05.637Z,11.12
2019-02-07T16:01:40.003Z,11.52
2019-02-07T16:04:14.091Z,11.20
2019-02-07T16:06:47.852Z,10.13
2019-02-07T16:09:23.042Z,13.55
2019-02-07T16:11:56.735Z,13.82
2019-02-07T16:14:30.687Z,12.98
2019-02-07T16:17:04.385Z,13.07
2019-02-07T16:19:37.994Z,12.27
2019-02-07T16:22:11.816Z,9.13
2019-02-07T16:24:45.437Z,8.02
2019-02-07T16:27:18.996Z,5.25
2019-02-07T16:29:52.715Z,3.20
2019-02-07T16:32:26.230Z,2.62
2019-02-07T16:34:59.825Z,3.10
2019-02-07T16:37:33.376Z,6.70
2019-02-07T16:40:07.130Z,3.70
2019-02-07T16:42:40.841Z,2.78
2019-02-07T16:45:17.040Z,2.70
2019-02-07T16:47:51.455Z,2.65
2019-02-07T16:50:30.048Z,2.05
2019-02-07T16:53:03.748Z,2.80
2019-02-07T16:55:37.472Z,2.50
2019-02-07T16:58:11.171Z,3.10
2019-02-07T17:00:45.018Z,2.17
2019-02-07T17:03:18.661Z,1.80
2019-02-07T17:05:52.205Z,1.50
2019-02-07T17:08:26.690Z,2.92
2019-02-07T17:11:00.545Z,2.08
2019-02-07T17:13:34.239Z,1.90
2019-02-07T17:16:09.546Z,1.62
2019-02-07T17:18:43.147Z,2.22
2019-02-07T17:21:16.809Z,1.95
2019-02-07T17:23:50.491Z,1.73
2019-02-07T17:26:24.175Z,2.10
2019-02-07T17:28:58.782Z,2.55
2019-02-07T17:31:32.491Z,1.50
2019-02-07T17:34:07.140Z,2.97
2019-02-07T17:36:41.599Z,2.45
2019-02-07T17:39:15.382Z,2.30
2019-02-07T17:41:49.111Z,1.55
2019-02-07T17:44:22.884Z,2.75
2019-02-07T17:46:56.536Z,2.55
2019-02-07T17:49:30.339Z,2.80
2019-02-07T17:52:04.225Z,2.50
2019-02-07T17:54:37.981Z,4.35
2019-02-07T17:57:11.556Z,4.35
2019-02-07T17:59:45.359Z,5.45
2019-02-07T18:02:19.069Z,2.70
2019-02-07T18:04:52.665Z,3.75
2019-02-07T18:07:26.357Z,3.47
2019-02-07T18:09:59.997Z,3.25
2019-02-07T18:12:33.782Z,3.78
2019-02-07T18:15:07.395Z,3.80
2019-02-07T18:17:40.962Z,5.00
2019-02-07T18:20:16.138Z,3.70
2019-02-07T18:22:50.637Z,3.67
2019-02-07T18:25:24.227Z,4.75
2019-02-07T18:27:57.869Z,5.03
2019-02-07T18:30:32.350Z,5.93
2019-02-07T18:33:05.910Z,4.95
2019-02-07T18:35:39.720Z,5.22
2019-02-07T18:38:13.486Z,4.72
2019-02-07T18:40:47.248Z,5.18
2019-02-07T18:43:20.882Z,3.87
2019-02-07T18:45:54.661Z,3.75
2019-02-07T18:48:28.524Z,4.93
2019-02-07T18:51:05.442Z,4.60
2019-02-07T18:53:38.974Z,5.37
2019-02-07T18:56:13.299Z,4.18
2019-02-07T18:58:47.019Z,5.60
2019-02-07T19:01:20.612Z,5.00
2019-02-07T19:03:54.192Z,4.30
2019-02-07T19:06:27.909Z,5.60
2019-02-07T19:09:02.407Z,5.12
2019-02-07T19:11:36.862Z,5.87
2019-02-07T19:14:11.391Z,5.45
2019-02-07T19:16:45.891Z,4.37
2019-02-07T19:19:19.663Z,4.30
2019-02-07T19:21:57.133Z,4.20
2019-02-07T19:24:26.907Z,3.87
2019-02-07T19:27:00.516Z,4.55
2019-02-07T19:29:34.114Z,4.43
2019-02-07T19:32:08.422Z,3.62
2019-02-07T19:34:42.049Z,3.70
2019-02-07T19:37:15.614Z,4.25
2019-02-07T19:39:50.046Z,4.82
2019-02-07T19:42:23.610Z,4.62
2019-02-07T19:44:57.296Z,5.25
2019-02-07T19:47:30.879Z,5.40
2019-02-07T19:50:10.139Z,5.18
2019-02-07T19:52:43.767Z,4.55
2019-02-07T19:55:18.900Z,5.95
2019-02-07T19:57:52.708Z,5.68
2019-02-07T20:00:27.989Z,5.25
2019-02-07T20:03:01.577Z,4.55
2019-02-07T20:05:35.169Z,4.40
2019-02-07T20:08:08.656Z,3.75
2019-02-07T20:10:42.419Z,3.60
2019-02-07T20:13:16.037Z,3.95
2019-02-07T20:15:50.516Z,3.95
2019-02-07T20:18:24.292Z,2.78
2019-02-07T20:20:58.044Z,3.00
2019-02-07T20:23:32.390Z,2.25
2019-02-07T20:26:05.939Z,1.98
2019-02-07T20:28:39.577Z,1.70
2019-02-07T20:31:13.174Z,2.00
2019-02-07T20:33:46.698Z,1.77
2019-02-07T20:36:20.411Z,2.53
2019-02-07T20:38:54.157Z,1.95
2019-02-07T20:41:28.467Z,2.20
2019-02-07T20:44:02.045Z,2.67
2019-02-07T20:46:35.763Z,1.40
2019-02-07T20:49:10.047Z,2.00
2019-02-07T20:51:43.838Z,3.08
2019-02-07T20:54:17.494Z,3.30
2019-02-07T20:56:51.264Z,2.35
2019-02-07T20:59:24.878Z,2.28
2019-02-07T21:01:58.755Z,2.53
2019-02-07T21:04:32.363Z,2.15
2019-02-07T21:07:06.111Z,1.92
2019-02-07T21:09:39.879Z,2.30
2019-02-07T21:12:15.097Z,2.80
2019-02-07T21:14:49.499Z,3.15
2019-02-07T21:17:23.272Z,2.95
2019-02-07T21:19:56.786Z,3.03
2019-02-07T21:22:34.662Z,2.05
2019-02-07T21:25:04.896Z,2.05
2019-02-07T21:27:38.552Z,2.85
2019-02-07T21:30:13.881Z,2.85
2019-02-07T21:32:47.548Z,1.90
2019-02-07T21:35:21.958Z,2.35
2019-02-07T21:37:56.383Z,2.05
2019-02-07T21:40:30.999Z,2.50
2019-02-07T21:43:05.361Z,4.90
2019-02-07T21:45:39.306Z,2.10
2019-02-07T21:48:13.013Z,2.22
2019-02-07T21:50:46.580Z,2.08
2019-02-07T21:53:20.087Z,2.17
2019-02-07T21:55:53.659Z,1.95
2019-02-07T21:58:27.348Z,1.75
2019-02-07T22:01:00.936Z,1.70
2019-02-07T22:03:34.666Z,2.65
2019-02-07T22:06:08.241Z,2.05
2019-02-07T22:08:41.831Z,2.37
2019-02-07T22:11:15.635Z,1.90
2019-02-07T22:13:49.291Z,2.25
2019-02-07T22:16:22.849Z,1.85
2019-02-07T22:18:56.444Z,1.90
2019-02-07T22:21:30.286Z,1.70
2019-02-07T22:24:04.778Z,2.05
2019-02-07T22:26:38.731Z,2.12
2019-02-07T22:29:12.279Z,1.98
2019-02-07T22:31:46.611Z,2.33
2019-02-07T22:34:20.351Z,1.92
2019-02-07T22:36:53.935Z,1.65
2019-02-07T22:39:28.444Z,2.12
2019-02-07T22:42:01.986Z,2.33
2019-02-07T22:44:35.891Z,2.50
2019-02-07T22:47:09.594Z,2.58
2019-02-07T22:53:07.966Z,2.97
2019-02-07T22:55:41.653Z,2.20
2019-02-07T22:58:15.386Z,2.70
2019-02-07T23:00:51.796Z,2.92
2019-02-07T23:03:25.607Z,2.40
2019-02-07T23:05:59.256Z,2.15
2019-02-07T23:08:33.391Z,2.25
2019-02-07T23:11:07.106Z,1.80
2019-02-07T23:13:40.786Z,2.55
2019-02-07T23:16:15.332Z,2.12
2019-02-07T23:18:49.181Z,2.22
2019-02-07T23:21:22.724Z,2.28
2019-02-07T23:23:56.410Z,1.95
2019-02-07T23:26:30.111Z,1.45
2019-02-07T23:29:03.859Z,2.50
2019-02-07T23:31:38.187Z,1.92
2019-02-07T23:34:11.946Z,2.05
2019-02-07T23:36:45.532Z,2.30
2019-02-07T23:39:20.011Z,3.10
2019-02-07T23:41:53.763Z,2.20
2019-02-07T23:44:27.289Z,2.00
2019-02-07T23:47:01.879Z,2.50
2019-02-07T23:49:36.210Z,1.73
2019-02-07T23:52:10.024Z,2.75
2019-02-07T23:54:43.777Z,2.40
2019-02-07T23:57:17.376Z,1.80
2019-02-07T23:59:50.998Z,2.10
